sensor_id;sensor_type;location;lat;lon;timestamp;P1;durP1;ratioP1;P2;durP2;ratioP2
55879;SDS011;41802;51.564;-1.838;2024-01-06T00:01:38;5.07;;;0.77;;
55879;SDS011;41802;51.564;-1.838;2024-01-06T00:04:06;4.88;;;0.75;;
55879;SDS011;41802;51.564;-1.838;2024-01-06T00:06:35;5.20;;;1.00;;
55879;SDS011;41802;51.564;-1.838;2024-01-06T00:09:03;4.43;;;0.87;;
55879;SDS011;41802;51.564;-1.838;2024-01-06T00:11:31;5.15;;;0.60;;
55879;SDS011;41802;51.564;-1.838;2024-01-06T00:13:59;4.60;;;0.70;;
55879;SDS011;41802;51.564;-1.838;2024-01-06T00:16:26;2.55;;;0.30;;
55879;SDS011;41802;51.564;-1.838;2024-01-06T00:18:55;5.90;;;0.57;;
55879;SDS011;41802;51.564;-1.838;2024-01-06T00:21:23;5.17;;;0.50;;
55879;SDS011;41802;51.564;-1.838;2024-01-06T00:23:52;4.50;;;0.70;;
55879;SDS011;41802;51.564;-1.838;2024-01-06T00:26:22;4.75;;;0.70;;
55879;SDS011;41802;51.564;-1.838;2024-01-06T00:28:50;7.43;;;0.77;;
55879;SDS011;41802;51.564;-1.838;2024-01-06T00:31:20;4.97;;;0.65;;
55879;SDS011;41802;51.564;-1.838;2024-01-06T00:33:50;4.70;;;0.80;;
55879;SDS011;41802;51.564;-1.838;2024-01-06T00:36:18;4.55;;;0.65;;
55879;SDS011;41802;51.564;-1.838;2024-01-06T00:38:45;4.53;;;0.52;;
55879;SDS011;41802;51.564;-1.838;2024-01-06T00:41:15;5.32;;;0.70;;
55879;SDS011;41802;51.564;-1.838;2024-01-06T00:43:43;5.50;;;0.70;;
55879;SDS011;41802;51.564;-1.838;2024-01-06T00:46:11;5.00;;;0.67;;
55879;SDS011;41802;51.564;-1.838;2024-01-06T00:48:39;4.70;;;0.73;;
55879;SDS011;41802;51.564;-1.838;2024-01-06T00:51:07;4.47;;;0.80;;
55879;SDS011;41802;51.564;-1.838;2024-01-06T00:53:34;5.75;;;0.63;;
55879;SDS011;41802;51.564;-1.838;2024-01-06T00:56:02;6.55;;;1.00;;
55879;SDS011;41802;51.564;-1.838;2024-01-06T00:58:32;6.97;;;0.60;;
55879;SDS011;41802;51.564;-1.838;2024-01-06T01:00:59;6.32;;;0.63;;
55879;SDS011;41802;51.564;-1.838;2024-01-06T01:03:27;3.85;;;0.50;;
55879;SDS011;41802;51.564;-1.838;2024-01-06T01:05:55;3.40;;;0.50;;
55879;SDS011;41802;51.564;-1.838;2024-01-06T01:08:23;4.00;;;0.82;;
55879;SDS011;41802;51.564;-1.838;2024-01-06T01:10:50;6.20;;;0.60;;
55879;SDS011;41802;51.564;-1.838;2024-01-06T01:13:18;7.45;;;0.70;;
55879;SDS011;41802;51.564;-1.838;2024-01-06T01:15:47;4.28;;;0.93;;
55879;SDS011;41802;51.564;-1.838;2024-01-06T01:18:15;4.75;;;0.40;;
55879;SDS011;41802;51.564;-1.838;2024-01-06T01:20:44;3.80;;;0.60;;
55879;SDS011;41802;51.564;-1.838;2024-01-06T01:23:12;6.67;;;0.60;;
55879;SDS011;41802;51.564;-1.838;2024-01-06T01:25:40;6.88;;;0.68;;
55879;SDS011;41802;51.564;-1.838;2024-01-06T01:28:25;4.35;;;0.57;;
55879;SDS011;41802;51.564;-1.838;2024-01-06T01:30:54;3.78;;;0.50;;
55879;SDS011;41802;51.564;-1.838;2024-01-06T01:33:22;5.75;;;0.50;;
55879;SDS011;41802;51.564;-1.838;2024-01-06T01:35:50;2.97;;;0.37;;
55879;SDS011;41802;51.564;-1.838;2024-01-06T01:38:18;5.57;;;0.55;;
55879;SDS011;41802;51.564;-1.838;2024-01-06T01:40:46;5.63;;;0.90;;
55879;SDS011;41802;51.564;-1.838;2024-01-06T01:43:17;7.05;;;0.50;;
55879;SDS011;41802;51.564;-1.838;2024-01-06T01:45:45;5.47;;;0.95;;
55879;SDS011;41802;51.564;-1.838;2024-01-06T01:48:17;5.10;;;0.57;;
55879;SDS011;41802;51.564;-1.838;2024-01-06T01:50:45;3.92;;;0.45;;
55879;SDS011;41802;51.564;-1.838;2024-01-06T01:53:13;3.78;;;0.77;;
55879;SDS011;41802;51.564;-1.838;2024-01-06T01:55:41;5.90;;;0.50;;
55879;SDS011;41802;51.564;-1.838;2024-01-06T01:58:12;7.03;;;1.10;;
55879;SDS011;41802;51.564;-1.838;2024-01-06T02:00:39;3.07;;;0.53;;
55879;SDS011;41802;51.564;-1.838;2024-01-06T02:03:07;4.60;;;0.43;;
55879;SDS011;41802;51.564;-1.838;2024-01-06T02:05:38;5.03;;;0.40;;
55879;SDS011;41802;51.564;-1.838;2024-01-06T02:08:06;10.13;;;0.60;;
55879;SDS011;41802;51.564;-1.838;2024-01-06T02:10:33;3.80;;;0.50;;
55879;SDS011;41802;51.564;-1.838;2024-01-06T02:13:07;4.10;;;0.40;;
55879;SDS011;41802;51.564;-1.838;2024-01-06T02:15:35;5.72;;;0.40;;
55879;SDS011;41802;51.564;-1.838;2024-01-06T02:18:03;7.82;;;0.65;;
55879;SDS011;41802;51.564;-1.838;2024-01-06T02:20:31;4.30;;;0.50;;
55879;SDS011;41802;51.564;-1.838;2024-01-06T02:23:00;7.65;;;0.45;;
55879;SDS011;41802;51.564;-1.838;2024-01-06T02:25:28;5.37;;;0.50;;
55879;SDS011;41802;51.564;-1.838;2024-01-06T02:27:56;3.53;;;0.40;;
55879;SDS011;41802;51.564;-1.838;2024-01-06T02:30:24;3.03;;;0.60;;
55879;SDS011;41802;51.564;-1.838;2024-01-06T02:32:52;2.83;;;0.38;;
55879;SDS011;41802;51.564;-1.838;2024-01-06T02:35:20;5.28;;;0.57;;
55879;SDS011;41802;51.564;-1.838;2024-01-06T02:37:48;4.63;;;0.57;;
55879;SDS011;41802;51.564;-1.838;2024-01-06T02:40:17;5.25;;;0.52;;
55879;SDS011;41802;51.564;-1.838;2024-01-06T02:42:45;7.20;;;1.20;;
55879;SDS011;41802;51.564;-1.838;2024-01-06T02:45:13;9.75;;;1.02;;
55879;SDS011;41802;51.564;-1.838;2024-01-06T02:47:41;5.80;;;0.55;;
55879;SDS011;41802;51.564;-1.838;2024-01-06T02:50:08;6.43;;;0.50;;
55879;SDS011;41802;51.564;-1.838;2024-01-06T02:52:37;3.17;;;0.50;;
55879;SDS011;41802;51.564;-1.838;2024-01-06T02:55:06;9.73;;;0.55;;
55879;SDS011;41802;51.564;-1.838;2024-01-06T02:57:35;4.80;;;0.73;;
55879;SDS011;41802;51.564;-1.838;2024-01-06T03:00:04;4.90;;;0.50;;
55879;SDS011;41802;51.564;-1.838;2024-01-06T03:02:31;4.43;;;0.57;;
55879;SDS011;41802;51.564;-1.838;2024-01-06T03:04:59;6.93;;;0.50;;
55879;SDS011;41802;51.564;-1.838;2024-01-06T03:07:27;5.25;;;0.60;;
55879;SDS011;41802;51.564;-1.838;2024-01-06T03:09:57;5.32;;;1.13;;
55879;SDS011;41802;51.564;-1.838;2024-01-06T03:12:24;5.15;;;0.45;;
55879;SDS011;41802;51.564;-1.838;2024-01-06T03:14:54;5.23;;;0.70;;
55879;SDS011;41802;51.564;-1.838;2024-01-06T03:17:21;8.05;;;0.80;;
55879;SDS011;41802;51.564;-1.838;2024-01-06T03:19:49;7.05;;;0.65;;
55879;SDS011;41802;51.564;-1.838;2024-01-06T03:22:18;5.03;;;0.75;;
55879;SDS011;41802;51.564;-1.838;2024-01-06T03:24:46;5.55;;;0.65;;
55879;SDS011;41802;51.564;-1.838;2024-01-06T03:27:13;5.33;;;0.53;;
55879;SDS011;41802;51.564;-1.838;2024-01-06T03:29:41;7.82;;;0.80;;
55879;SDS011;41802;51.564;-1.838;2024-01-06T03:32:10;5.93;;;0.70;;
55879;SDS011;41802;51.564;-1.838;2024-01-06T03:34:48;6.68;;;0.68;;
55879;SDS011;41802;51.564;-1.838;2024-01-06T03:37:17;6.00;;;0.50;;
55879;SDS011;41802;51.564;-1.838;2024-01-06T03:39:45;6.27;;;0.43;;
55879;SDS011;41802;51.564;-1.838;2024-01-06T03:42:13;6.57;;;0.70;;
55879;SDS011;41802;51.564;-1.838;2024-01-06T03:44:40;6.28;;;1.08;;
55879;SDS011;41802;51.564;-1.838;2024-01-06T03:47:10;6.45;;;1.13;;
55879;SDS011;41802;51.564;-1.838;2024-01-06T03:49:38;9.90;;;0.98;;
55879;SDS011;41802;51.564;-1.838;2024-01-06T03:52:06;6.27;;;0.63;;
55879;SDS011;41802;51.564;-1.838;2024-01-06T03:54:34;6.18;;;0.95;;
55879;SDS011;41802;51.564;-1.838;2024-01-06T03:57:01;4.30;;;0.57;;
55879;SDS011;41802;51.564;-1.838;2024-01-06T03:59:29;7.70;;;0.77;;
55879;SDS011;41802;51.564;-1.838;2024-01-06T04:01:57;6.40;;;0.77;;
55879;SDS011;41802;51.564;-1.838;2024-01-06T04:04:26;4.50;;;0.57;;
55879;SDS011;41802;51.564;-1.838;2024-01-06T04:06:53;5.38;;;0.55;;
55879;SDS011;41802;51.564;-1.838;2024-01-06T04:09:21;8.23;;;1.20;;
55879;SDS011;41802;51.564;-1.838;2024-01-06T04:11:49;6.05;;;0.73;;
55879;SDS011;41802;51.564;-1.838;2024-01-06T04:14:16;5.20;;;0.70;;
55879;SDS011;41802;51.564;-1.838;2024-01-06T04:16:44;7.17;;;0.60;;
55879;SDS011;41802;51.564;-1.838;2024-01-06T04:19:12;7.32;;;0.52;;
55879;SDS011;41802;51.564;-1.838;2024-01-06T04:21:42;6.97;;;0.55;;
55879;SDS011;41802;51.564;-1.838;2024-01-06T04:24:10;8.20;;;0.68;;
55879;SDS011;41802;51.564;-1.838;2024-01-06T04:26:38;7.38;;;0.60;;
55879;SDS011;41802;51.564;-1.838;2024-01-06T04:29:06;6.63;;;0.47;;
55879;SDS011;41802;51.564;-1.838;2024-01-06T04:31:34;9.85;;;0.75;;
55879;SDS011;41802;51.564;-1.838;2024-01-06T04:34:02;4.18;;;0.47;;
55879;SDS011;41802;51.564;-1.838;2024-01-06T04:36:30;5.43;;;0.90;;
55879;SDS011;41802;51.564;-1.838;2024-01-06T04:38:59;5.50;;;0.55;;
55879;SDS011;41802;51.564;-1.838;2024-01-06T04:41:27;4.37;;;0.60;;
55879;SDS011;41802;51.564;-1.838;2024-01-06T04:43:55;5.75;;;0.40;;
55879;SDS011;41802;51.564;-1.838;2024-01-06T04:46:23;11.15;;;1.30;;
55879;SDS011;41802;51.564;-1.838;2024-01-06T04:48:51;8.88;;;0.80;;
55879;SDS011;41802;51.564;-1.838;2024-01-06T04:51:18;7.72;;;1.25;;
55879;SDS011;41802;51.564;-1.838;2024-01-06T04:53:46;10.93;;;0.57;;
55879;SDS011;41802;51.564;-1.838;2024-01-06T04:56:15;11.13;;;1.00;;
55879;SDS011;41802;51.564;-1.838;2024-01-06T04:58:43;9.20;;;0.93;;
55879;SDS011;41802;51.564;-1.838;2024-01-06T05:01:11;5.38;;;0.68;;
55879;SDS011;41802;51.564;-1.838;2024-01-06T05:03:39;4.97;;;0.60;;
55879;SDS011;41802;51.564;-1.838;2024-01-06T05:06:08;6.20;;;0.60;;
55879;SDS011;41802;51.564;-1.838;2024-01-06T05:08:36;8.55;;;0.85;;
55879;SDS011;41802;51.564;-1.838;2024-01-06T05:11:07;7.70;;;1.20;;
55879;SDS011;41802;51.564;-1.838;2024-01-06T05:13:37;5.18;;;0.73;;
55879;SDS011;41802;51.564;-1.838;2024-01-06T05:16:06;5.13;;;0.70;;
55879;SDS011;41802;51.564;-1.838;2024-01-06T05:18:34;10.73;;;1.30;;
55879;SDS011;41802;51.564;-1.838;2024-01-06T05:21:02;7.68;;;1.05;;
55879;SDS011;41802;51.564;-1.838;2024-01-06T05:23:30;9.70;;;1.10;;
55879;SDS011;41802;51.564;-1.838;2024-01-06T05:25:58;6.80;;;1.00;;
55879;SDS011;41802;51.564;-1.838;2024-01-06T05:28:26;9.77;;;1.23;;
55879;SDS011;41802;51.564;-1.838;2024-01-06T05:30:55;9.60;;;0.97;;
55879;SDS011;41802;51.564;-1.838;2024-01-06T05:33:23;9.45;;;1.48;;
55879;SDS011;41802;51.564;-1.838;2024-01-06T05:35:51;10.38;;;1.70;;
55879;SDS011;41802;51.564;-1.838;2024-01-06T05:38:19;9.13;;;1.42;;
55879;SDS011;41802;51.564;-1.838;2024-01-06T05:40:46;11.95;;;1.75;;
55879;SDS011;41802;51.564;-1.838;2024-01-06T05:43:14;8.90;;;0.97;;
55879;SDS011;41802;51.564;-1.838;2024-01-06T05:45:42;10.65;;;1.13;;
55879;SDS011;41802;51.564;-1.838;2024-01-06T05:48:11;11.77;;;1.90;;
55879;SDS011;41802;51.564;-1.838;2024-01-06T05:50:39;13.07;;;1.23;;
55879;SDS011;41802;51.564;-1.838;2024-01-06T05:53:07;12.23;;;1.40;;
55879;SDS011;41802;51.564;-1.838;2024-01-06T05:55:35;9.20;;;1.40;;
55879;SDS011;41802;51.564;-1.838;2024-01-06T05:58:04;10.93;;;1.13;;
55879;SDS011;41802;51.564;-1.838;2024-01-06T06:00:32;7.35;;;1.15;;
55879;SDS011;41802;51.564;-1.838;2024-01-06T06:03:00;11.57;;;1.40;;
55879;SDS011;41802;51.564;-1.838;2024-01-06T06:05:29;7.60;;;0.80;;
55879;SDS011;41802;51.564;-1.838;2024-01-06T06:07:57;9.10;;;1.27;;
55879;SDS011;41802;51.564;-1.838;2024-01-06T06:10:25;6.93;;;0.93;;
55879;SDS011;41802;51.564;-1.838;2024-01-06T06:13:06;11.05;;;0.80;;
55879;SDS011;41802;51.564;-1.838;2024-01-06T06:15:37;15.88;;;1.25;;
55879;SDS011;41802;51.564;-1.838;2024-01-06T06:18:04;6.18;;;1.17;;
55879;SDS011;41802;51.564;-1.838;2024-01-06T06:20:34;9.37;;;1.40;;
55879;SDS011;41802;51.564;-1.838;2024-01-06T06:23:02;11.35;;;1.63;;
55879;SDS011;41802;51.564;-1.838;2024-01-06T06:25:30;10.60;;;1.42;;
55879;SDS011;41802;51.564;-1.838;2024-01-06T06:27:57;8.20;;;1.58;;
55879;SDS011;41802;51.564;-1.838;2024-01-06T06:30:25;7.20;;;1.65;;
55879;SDS011;41802;51.564;-1.838;2024-01-06T06:32:53;7.90;;;1.53;;
55879;SDS011;41802;51.564;-1.838;2024-01-06T06:35:21;11.07;;;1.80;;
55879;SDS011;41802;51.564;-1.838;2024-01-06T06:37:50;10.13;;;1.65;;
55879;SDS011;41802;51.564;-1.838;2024-01-06T06:40:18;11.95;;;1.90;;
55879;SDS011;41802;51.564;-1.838;2024-01-06T06:42:46;8.48;;;1.90;;
55879;SDS011;41802;51.564;-1.838;2024-01-06T06:45:15;8.73;;;1.30;;
55879;SDS011;41802;51.564;-1.838;2024-01-06T06:47:43;9.82;;;1.95;;
55879;SDS011;41802;51.564;-1.838;2024-01-06T06:50:11;9.88;;;1.73;;
55879;SDS011;41802;51.564;-1.838;2024-01-06T06:52:39;6.90;;;1.20;;
55879;SDS011;41802;51.564;-1.838;2024-01-06T06:55:08;10.85;;;1.60;;
55879;SDS011;41802;51.564;-1.838;2024-01-06T06:57:36;7.90;;;1.27;;
55879;SDS011;41802;51.564;-1.838;2024-01-06T07:00:04;8.73;;;1.30;;
55879;SDS011;41802;51.564;-1.838;2024-01-06T07:02:33;9.52;;;1.70;;
55879;SDS011;41802;51.564;-1.838;2024-01-06T07:05:01;11.55;;;1.40;;
55879;SDS011;41802;51.564;-1.838;2024-01-06T07:07:29;8.43;;;1.40;;
55879;SDS011;41802;51.564;-1.838;2024-01-06T07:09:57;8.97;;;1.73;;
55879;SDS011;41802;51.564;-1.838;2024-01-06T07:12:26;13.00;;;1.58;;
55879;SDS011;41802;51.564;-1.838;2024-01-06T07:14:54;13.57;;;2.13;;
55879;SDS011;41802;51.564;-1.838;2024-01-06T07:17:22;12.30;;;1.40;;
55879;SDS011;41802;51.564;-1.838;2024-01-06T07:19:49;7.20;;;1.35;;
55879;SDS011;41802;51.564;-1.838;2024-01-06T07:22:17;10.33;;;1.30;;
55879;SDS011;41802;51.564;-1.838;2024-01-06T07:24:45;7.90;;;1.33;;
55879;SDS011;41802;51.564;-1.838;2024-01-06T07:27:13;5.60;;;1.05;;
55879;SDS011;41802;51.564;-1.838;2024-01-06T07:29:43;7.38;;;1.30;;
55879;SDS011;41802;51.564;-1.838;2024-01-06T07:32:10;7.70;;;1.10;;
55879;SDS011;41802;51.564;-1.838;2024-01-06T07:34:46;10.40;;;1.67;;
55879;SDS011;41802;51.564;-1.838;2024-01-06T07:37:15;11.45;;;1.70;;
55879;SDS011;41802;51.564;-1.838;2024-01-06T07:39:43;9.60;;;2.33;;
55879;SDS011;41802;51.564;-1.838;2024-01-06T07:42:11;5.00;;;1.15;;
55879;SDS011;41802;51.564;-1.838;2024-01-06T07:44:38;9.93;;;2.28;;
55879;SDS011;41802;51.564;-1.838;2024-01-06T07:47:07;7.20;;;1.77;;
55879;SDS011;41802;51.564;-1.838;2024-01-06T07:49:35;10.02;;;1.83;;
55879;SDS011;41802;51.564;-1.838;2024-01-06T07:52:03;10.90;;;1.48;;
55879;SDS011;41802;51.564;-1.838;2024-01-06T07:54:35;13.02;;;2.97;;
55879;SDS011;41802;51.564;-1.838;2024-01-06T07:57:03;14.63;;;2.85;;
55879;SDS011;41802;51.564;-1.838;2024-01-06T07:59:31;9.93;;;2.53;;
55879;SDS011;41802;51.564;-1.838;2024-01-06T08:01:59;9.10;;;2.80;;
55879;SDS011;41802;51.564;-1.838;2024-01-06T08:04:28;14.52;;;3.30;;
55879;SDS011;41802;51.564;-1.838;2024-01-06T08:06:56;12.90;;;3.40;;
55879;SDS011;41802;51.564;-1.838;2024-01-06T08:09:24;12.35;;;3.17;;
55879;SDS011;41802;51.564;-1.838;2024-01-06T08:11:52;16.80;;;3.70;;
55879;SDS011;41802;51.564;-1.838;2024-01-06T08:14:20;12.38;;;4.13;;
55879;SDS011;41802;51.564;-1.838;2024-01-06T08:16:48;16.15;;;3.53;;
55879;SDS011;41802;51.564;-1.838;2024-01-06T08:19:21;18.27;;;4.20;;
55879;SDS011;41802;51.564;-1.838;2024-01-06T08:21:50;14.52;;;3.90;;
55879;SDS011;41802;51.564;-1.838;2024-01-06T08:24:18;13.87;;;3.97;;
55879;SDS011;41802;51.564;-1.838;2024-01-06T08:26:46;14.68;;;3.72;;
55879;SDS011;41802;51.564;-1.838;2024-01-06T08:29:14;12.20;;;3.55;;
55879;SDS011;41802;51.564;-1.838;2024-01-06T08:31:43;14.63;;;4.38;;
55879;SDS011;41802;51.564;-1.838;2024-01-06T08:34:10;10.60;;;4.10;;
55879;SDS011;41802;51.564;-1.838;2024-01-06T08:36:38;14.57;;;3.47;;
55879;SDS011;41802;51.564;-1.838;2024-01-06T08:39:08;12.18;;;3.58;;
55879;SDS011;41802;51.564;-1.838;2024-01-06T08:41:36;15.73;;;4.13;;
55879;SDS011;41802;51.564;-1.838;2024-01-06T08:44:04;12.85;;;3.78;;
55879;SDS011;41802;51.564;-1.838;2024-01-06T08:46:31;14.23;;;3.97;;
55879;SDS011;41802;51.564;-1.838;2024-01-06T08:48:59;12.73;;;3.70;;
55879;SDS011;41802;51.564;-1.838;2024-01-06T08:51:27;19.20;;;4.00;;
55879;SDS011;41802;51.564;-1.838;2024-01-06T08:53:57;22.27;;;4.53;;
55879;SDS011;41802;51.564;-1.838;2024-01-06T08:56:27;15.38;;;3.92;;
55879;SDS011;41802;51.564;-1.838;2024-01-06T08:58:54;14.70;;;3.72;;
55879;SDS011;41802;51.564;-1.838;2024-01-06T09:01:24;16.33;;;4.00;;
55879;SDS011;41802;51.564;-1.838;2024-01-06T09:03:52;10.82;;;3.70;;
55879;SDS011;41802;51.564;-1.838;2024-01-06T09:06:19;14.60;;;3.35;;
55879;SDS011;41802;51.564;-1.838;2024-01-06T09:08:47;10.93;;;2.90;;
55879;SDS011;41802;51.564;-1.838;2024-01-06T09:11:15;11.02;;;3.10;;
55879;SDS011;41802;51.564;-1.838;2024-01-06T09:13:44;17.57;;;4.10;;
55879;SDS011;41802;51.564;-1.838;2024-01-06T09:16:12;14.52;;;3.38;;
55879;SDS011;41802;51.564;-1.838;2024-01-06T09:18:40;10.60;;;2.53;;
55879;SDS011;41802;51.564;-1.838;2024-01-06T09:21:08;14.27;;;2.17;;
55879;SDS011;41802;51.564;-1.838;2024-01-06T09:23:36;12.52;;;3.00;;
55879;SDS011;41802;51.564;-1.838;2024-01-06T09:26:04;12.17;;;2.97;;
55879;SDS011;41802;51.564;-1.838;2024-01-06T09:28:31;12.85;;;2.45;;
55879;SDS011;41802;51.564;-1.838;2024-01-06T09:31:00;11.45;;;2.13;;
55879;SDS011;41802;51.564;-1.838;2024-01-06T09:33:29;13.15;;;1.73;;
55879;SDS011;41802;51.564;-1.838;2024-01-06T09:35:56;11.63;;;2.05;;
55879;SDS011;41802;51.564;-1.838;2024-01-06T09:38:24;13.60;;;2.13;;
55879;SDS011;41802;51.564;-1.838;2024-01-06T09:40:52;9.02;;;2.00;;
55879;SDS011;41802;51.564;-1.838;2024-01-06T09:43:20;15.48;;;2.20;;
55879;SDS011;41802;51.564;-1.838;2024-01-06T09:45:51;11.95;;;1.80;;
55879;SDS011;41802;51.564;-1.838;2024-01-06T09:48:21;12.02;;;1.80;;
55879;SDS011;41802;51.564;-1.838;2024-01-06T09:50:50;11.97;;;2.03;;
55879;SDS011;41802;51.564;-1.838;2024-01-06T09:53:22;10.65;;;1.42;;
55879;SDS011;41802;51.564;-1.838;2024-01-06T09:55:50;12.05;;;1.92;;
55879;SDS011;41802;51.564;-1.838;2024-01-06T09:58:18;11.05;;;1.70;;
55879;SDS011;41802;51.564;-1.838;2024-01-06T10:00:47;13.15;;;1.83;;
55879;SDS011;41802;51.564;-1.838;2024-01-06T10:03:15;14.00;;;1.97;;
55879;SDS011;41802;51.564;-1.838;2024-01-06T10:05:44;13.00;;;2.08;;
55879;SDS011;41802;51.564;-1.838;2024-01-06T10:08:12;13.65;;;2.63;;
55879;SDS011;41802;51.564;-1.838;2024-01-06T10:10:40;10.52;;;2.75;;
55879;SDS011;41802;51.564;-1.838;2024-01-06T10:13:08;11.80;;;1.92;;
55879;SDS011;41802;51.564;-1.838;2024-01-06T10:15:36;10.63;;;2.33;;
55879;SDS011;41802;51.564;-1.838;2024-01-06T10:18:04;17.30;;;2.38;;
55879;SDS011;41802;51.564;-1.838;2024-01-06T10:20:32;11.27;;;2.22;;
55879;SDS011;41802;51.564;-1.838;2024-01-06T10:23:05;16.13;;;2.63;;
55879;SDS011;41802;51.564;-1.838;2024-01-06T10:25:33;16.20;;;2.17;;
55879;SDS011;41802;51.564;-1.838;2024-01-06T10:28:00;12.33;;;2.40;;
55879;SDS011;41802;51.564;-1.838;2024-01-06T10:30:29;12.32;;;2.40;;
55879;SDS011;41802;51.564;-1.838;2024-01-06T10:32:57;12.02;;;2.33;;
55879;SDS011;41802;51.564;-1.838;2024-01-06T10:35:25;10.57;;;1.83;;
55879;SDS011;41802;51.564;-1.838;2024-01-06T10:37:53;10.70;;;2.30;;
55879;SDS011;41802;51.564;-1.838;2024-01-06T10:40:22;12.13;;;2.20;;
55879;SDS011;41802;51.564;-1.838;2024-01-06T10:42:51;14.63;;;2.05;;
55879;SDS011;41802;51.564;-1.838;2024-01-06T10:45:19;8.00;;;1.40;;
55879;SDS011;41802;51.564;-1.838;2024-01-06T10:47:46;13.55;;;1.70;;
55879;SDS011;41802;51.564;-1.838;2024-01-06T10:50:14;8.20;;;1.75;;
55879;SDS011;41802;51.564;-1.838;2024-01-06T10:52:44;6.13;;;1.33;;
55879;SDS011;41802;51.564;-1.838;2024-01-06T10:55:14;11.90;;;1.60;;
55879;SDS011;41802;51.564;-1.838;2024-01-06T10:57:45;10.95;;;1.48;;
55879;SDS011;41802;51.564;-1.838;2024-01-06T11:00:13;14.15;;;1.63;;
55879;SDS011;41802;51.564;-1.838;2024-01-06T11:02:41;8.93;;;2.00;;
55879;SDS011;41802;51.564;-1.838;2024-01-06T11:05:09;9.17;;;1.57;;
55879;SDS011;41802;51.564;-1.838;2024-01-06T11:07:39;10.15;;;1.70;;
55879;SDS011;41802;51.564;-1.838;2024-01-06T11:10:10;6.97;;;1.30;;
55879;SDS011;41802;51.564;-1.838;2024-01-06T11:12:41;8.75;;;1.60;;
55879;SDS011;41802;51.564;-1.838;2024-01-06T11:15:11;16.83;;;1.88;;
55879;SDS011;41802;51.564;-1.838;2024-01-06T11:17:59;6.47;;;1.27;;
55879;SDS011;41802;51.564;-1.838;2024-01-06T11:20:26;8.60;;;1.77;;
55879;SDS011;41802;51.564;-1.838;2024-01-06T11:22:54;10.02;;;2.58;;
55879;SDS011;41802;51.564;-1.838;2024-01-06T11:25:24;10.40;;;2.42;;
55879;SDS011;41802;51.564;-1.838;2024-01-06T11:27:54;12.57;;;1.85;;
55879;SDS011;41802;51.564;-1.838;2024-01-06T11:30:26;10.80;;;2.20;;
55879;SDS011;41802;51.564;-1.838;2024-01-06T11:32:55;15.60;;;2.15;;
55879;SDS011;41802;51.564;-1.838;2024-01-06T11:35:26;12.13;;;2.20;;
55879;SDS011;41802;51.564;-1.838;2024-01-06T11:37:54;10.13;;;1.70;;
55879;SDS011;41802;51.564;-1.838;2024-01-06T11:40:31;10.15;;;1.90;;
55879;SDS011;41802;51.564;-1.838;2024-01-06T11:43:01;13.03;;;2.30;;
55879;SDS011;41802;51.564;-1.838;2024-01-06T11:45:31;9.20;;;1.40;;
55879;SDS011;41802;51.564;-1.838;2024-01-06T11:47:59;8.40;;;1.50;;
55879;SDS011;41802;51.564;-1.838;2024-01-06T11:50:29;8.13;;;1.65;;
55879;SDS011;41802;51.564;-1.838;2024-01-06T11:52:56;10.23;;;2.00;;
55879;SDS011;41802;51.564;-1.838;2024-01-06T11:55:26;10.33;;;1.63;;
55879;SDS011;41802;51.564;-1.838;2024-01-06T11:57:55;8.38;;;1.60;;
55879;SDS011;41802;51.564;-1.838;2024-01-06T12:00:24;8.60;;;1.50;;
55879;SDS011;41802;51.564;-1.838;2024-01-06T12:02:59;7.20;;;1.42;;
55879;SDS011;41802;51.564;-1.838;2024-01-06T12:05:27;6.45;;;1.27;;
55879;SDS011;41802;51.564;-1.838;2024-01-06T12:07:55;7.27;;;1.60;;
55879;SDS011;41802;51.564;-1.838;2024-01-06T12:10:24;8.60;;;1.17;;
55879;SDS011;41802;51.564;-1.838;2024-01-06T12:12:57;9.75;;;1.50;;
55879;SDS011;41802;51.564;-1.838;2024-01-06T12:15:26;8.93;;;1.73;;
55879;SDS011;41802;51.564;-1.838;2024-01-06T12:17:54;8.73;;;1.23;;
55879;SDS011;41802;51.564;-1.838;2024-01-06T12:20:24;8.00;;;1.07;;
55879;SDS011;41802;51.564;-1.838;2024-01-06T12:22:52;8.25;;;1.40;;
55879;SDS011;41802;51.564;-1.838;2024-01-06T12:25:20;9.05;;;1.35;;
55879;SDS011;41802;51.564;-1.838;2024-01-06T12:27:48;5.40;;;0.90;;
55879;SDS011;41802;51.564;-1.838;2024-01-06T12:30:17;10.00;;;1.90;;
55879;SDS011;41802;51.564;-1.838;2024-01-06T12:32:46;6.77;;;1.20;;
55879;SDS011;41802;51.564;-1.838;2024-01-06T12:35:15;7.70;;;1.65;;
55879;SDS011;41802;51.564;-1.838;2024-01-06T12:37:45;10.18;;;1.85;;
55879;SDS011;41802;51.564;-1.838;2024-01-06T12:40:13;9.02;;;1.25;;
55879;SDS011;41802;51.564;-1.838;2024-01-06T12:42:42;7.47;;;1.75;;
55879;SDS011;41802;51.564;-1.838;2024-01-06T12:45:11;8.73;;;1.47;;
55879;SDS011;41802;51.564;-1.838;2024-01-06T12:47:40;5.22;;;1.20;;
55879;SDS011;41802;51.564;-1.838;2024-01-06T12:50:10;7.90;;;1.50;;
55879;SDS011;41802;51.564;-1.838;2024-01-06T12:52:37;8.13;;;1.70;;
55879;SDS011;41802;51.564;-1.838;2024-01-06T12:55:08;8.48;;;1.48;;
55879;SDS011;41802;51.564;-1.838;2024-01-06T12:57:35;8.37;;;1.47;;
55879;SDS011;41802;51.564;-1.838;2024-01-06T13:00:04;8.65;;;1.50;;
55879;SDS011;41802;51.564;-1.838;2024-01-06T13:02:34;10.60;;;1.88;;
55879;SDS011;41802;51.564;-1.838;2024-01-06T13:05:01;9.45;;;1.75;;
55879;SDS011;41802;51.564;-1.838;2024-01-06T13:07:29;7.75;;;1.77;;
55879;SDS011;41802;51.564;-1.838;2024-01-06T13:09:57;9.70;;;1.77;;
55879;SDS011;41802;51.564;-1.838;2024-01-06T13:12:27;8.07;;;2.10;;
55879;SDS011;41802;51.564;-1.838;2024-01-06T13:14:55;10.27;;;2.33;;
55879;SDS011;41802;51.564;-1.838;2024-01-06T13:17:23;7.45;;;2.38;;
55879;SDS011;41802;51.564;-1.838;2024-01-06T13:19:51;8.85;;;2.13;;
55879;SDS011;41802;51.564;-1.838;2024-01-06T13:22:19;11.37;;;2.03;;
55879;SDS011;41802;51.564;-1.838;2024-01-06T13:24:48;12.25;;;2.03;;
55879;SDS011;41802;51.564;-1.838;2024-01-06T13:27:19;9.93;;;1.95;;
55879;SDS011;41802;51.564;-1.838;2024-01-06T13:29:48;7.00;;;1.83;;
55879;SDS011;41802;51.564;-1.838;2024-01-06T13:32:17;8.65;;;1.80;;
55879;SDS011;41802;51.564;-1.838;2024-01-06T13:34:45;6.70;;;1.40;;
55879;SDS011;41802;51.564;-1.838;2024-01-06T13:37:14;6.60;;;1.35;;
55879;SDS011;41802;51.564;-1.838;2024-01-06T13:39:42;8.07;;;1.70;;
55879;SDS011;41802;51.564;-1.838;2024-01-06T13:42:10;7.07;;;1.67;;
55879;SDS011;41802;51.564;-1.838;2024-01-06T13:44:38;6.80;;;1.35;;
55879;SDS011;41802;51.564;-1.838;2024-01-06T13:47:07;11.83;;;1.90;;
55879;SDS011;41802;51.564;-1.838;2024-01-06T13:49:34;8.07;;;1.80;;
55879;SDS011;41802;51.564;-1.838;2024-01-06T13:52:02;9.23;;;2.55;;
55879;SDS011;41802;51.564;-1.838;2024-01-06T13:54:30;6.47;;;1.70;;
55879;SDS011;41802;51.564;-1.838;2024-01-06T13:56:58;8.77;;;2.35;;
55879;SDS011;41802;51.564;-1.838;2024-01-06T13:59:26;6.50;;;1.60;;
55879;SDS011;41802;51.564;-1.838;2024-01-06T14:01:53;6.72;;;1.27;;
55879;SDS011;41802;51.564;-1.838;2024-01-06T14:04:23;7.22;;;1.00;;
55879;SDS011;41802;51.564;-1.838;2024-01-06T14:06:51;5.13;;;0.93;;
55879;SDS011;41802;51.564;-1.838;2024-01-06T14:09:22;4.68;;;0.60;;
55879;SDS011;41802;51.564;-1.838;2024-01-06T14:11:50;4.73;;;1.00;;
55879;SDS011;41802;51.564;-1.838;2024-01-06T14:14:20;7.38;;;1.00;;
55879;SDS011;41802;51.564;-1.838;2024-01-06T14:16:48;7.53;;;1.48;;
55879;SDS011;41802;51.564;-1.838;2024-01-06T14:19:17;5.43;;;1.08;;
55879;SDS011;41802;51.564;-1.838;2024-01-06T14:21:47;6.60;;;1.30;;
55879;SDS011;41802;51.564;-1.838;2024-01-06T14:24:15;4.90;;;1.30;;
55879;SDS011;41802;51.564;-1.838;2024-01-06T14:26:46;5.90;;;1.15;;
55879;SDS011;41802;51.564;-1.838;2024-01-06T14:29:14;8.77;;;1.40;;
55879;SDS011;41802;51.564;-1.838;2024-01-06T14:31:42;5.80;;;1.30;;
55879;SDS011;41802;51.564;-1.838;2024-01-06T14:34:10;6.60;;;1.20;;
55879;SDS011;41802;51.564;-1.838;2024-01-06T14:36:39;6.93;;;1.43;;
55879;SDS011;41802;51.564;-1.838;2024-01-06T14:39:15;7.65;;;1.00;;